OKBO2: North Canadian River at Britton Rd at OKC, OK

Data processed at Fri Dec 08 2017 23:24


All information presented herein is the property of the government of the United States of America and may be revised or deleted at any time without prior notice.
Dissemination of this information without the expressed written consent of the Public Affairs Office, Tulsa District U.S. Army Corps of Engineers is strictly prohibited.
These data are gathered electronically and, as presented, have not undergone any form of quality control. These data are not guaranteed to be valid or correct.
Go to home page.
Go to station list.

Upstream stations:

Downstream station:
Previous Day
Next Day
Current Day
    
SHEF ID:       OKBO2     North Canadian River at Britton
STATION TYPE:  

                STAGE  RIV-FLOW  WTR-TEMP   DIS-OXY   CONDUCT  BAT-LOAD
                   ft       cfs         F      mg/l   umho/cm      volt
              Ccp-Rev   Ccp-Rev   Ccp-Rev   Ccp-Rev   Ccp-Rev   Ccp-Rev
(US/Central)
12/06 00:00      6.90        77     44.71     10.86      1084     12.77
12/06 01:00      6.89        75     44.44     11.00      1082     12.77
12/06 02:00      6.88        74     44.19     10.89      1081     12.71
12/06 03:00      6.88        74     44.06     10.77      1078     12.71
12/06 04:00      6.88        74     43.83     10.55      1078     12.71
12/06 05:00      6.88        74     43.56     10.51      1073     12.71
12/06 06:00      6.88        74     43.23     10.45      1073     12.65
12/06 07:00      6.88        74     42.98     10.45      1073     12.60
12/06 08:00      6.89        75     42.62     10.55      1072     12.54
12/06 09:00      6.88        74     42.46     10.88      1070     13.48
12/06 10:00      6.91        79     42.89     11.16      1070     14.30
12/06 11:00      6.85        69     43.74     10.86      1069     14.41
12/06 12:00      6.89        75     44.91     11.78      1072     13.94
12/06 13:00      6.88        74     46.29     11.76      1070     13.94
12/06 14:00      6.87        72     47.21     11.96      1078     13.83
12/06 15:00      6.87        72     48.24     11.52      1077     13.65
12/06 16:00      6.88        74     48.70     11.45      1082     13.53
12/06 17:00      6.91        79     48.56     11.45      1085     13.42
12/06 18:00      6.91        79     48.11     11.05      1086     13.18
12/06 19:00      6.90        77     47.66     11.42      1087     13.00
12/06 20:00      6.89        75     47.26     11.37      1087     12.95
12/06 21:00      6.87        72     46.85     11.34      1085     12.89
12/06 22:00      6.85        69     46.56     11.14      1086     12.89
12/06 23:00      6.82        64     46.40     10.93      1082     12.83